Etusivu
METAR-TAF:

METAR-TAF

Lentoasemat :

Mtwara, Tansania

Leveyspiiri: 10-16S, Pituuspiiri: 040-11E, korkeus merenpinnasta: 113 m

Tämänhetkinen sää

Tämä raportti tehtiin 8 tuntia ja 5 minuuttia sitten, kello 19.00 UTC
Tuuli 8 kn etelästä/lounaasta
Lämpötila 22°C
Kosteus 88%
Ilmanpaine 1018 hPa
Näkyvyys 10 km tai enemmän
Muutamia pilviä 1800 ft:n korkeudessa

METAR: HTMT 261900Z 20008KT 9999 FEW018 22/20 Q1018 NOSIG

Aika: 06:05 (03:05 UTC)


TAF: puuttuu

Säähavainnot ja -ennusteet yli 4000 lentoasemalta (METAR- ja TAF-raportit).

Käytössä olevat sääasemat on merkitty karttaan keltaisilla ja punaisilla pisteillä.

Aseta hiiri pisteen päälle nähdäksesi sääaseman nimen.

Klikkaa sitten nähdäksesi säähavainnot ja -ennusteet.

Kartan vaihtaminen: klikkaa mustalla rastilla varustettuja vihreitä pisteitä, niin voit zoomata sisään; viivalla varustettua vihreää pistettä, niin voit zoomata ulos tai vihreitä nuolia, niin pääset viereisille kartoille.


METAR-TAF: